createdAt,value
2019-01-18T00:00:48.191Z,999.66
2019-01-18T00:01:48.205Z,999.60
2019-01-18T00:02:48.260Z,999.58
2019-01-18T00:03:48.201Z,999.62
2019-01-18T00:04:48.110Z,999.52
2019-01-18T00:05:48.219Z,999.55
2019-01-18T00:06:48.073Z,999.62
2019-01-18T00:07:48.066Z,999.64
2019-01-18T00:08:48.101Z,999.65
2019-01-18T00:09:48.045Z,999.61
2019-01-18T00:10:48.097Z,999.57
2019-01-18T00:11:48.088Z,999.61
2019-01-18T00:12:48.024Z,999.68
2019-01-18T00:13:48.109Z,999.70
2019-01-18T00:14:48.220Z,999.70
2019-01-18T00:15:48.019Z,999.65
2019-01-18T00:16:48.035Z,999.72
2019-01-18T00:17:47.975Z,999.73
2019-01-18T00:18:48.049Z,999.67
2019-01-18T00:19:48.003Z,999.69
2019-01-18T00:20:48.008Z,999.71
2019-01-18T00:21:47.999Z,999.77
2019-01-18T00:22:47.900Z,999.72
2019-01-18T00:23:47.888Z,999.74
2019-01-18T00:24:47.879Z,999.72
2019-01-18T00:25:47.879Z,999.76
2019-01-18T00:26:47.863Z,999.71
2019-01-18T00:27:47.845Z,999.73
2019-01-18T00:28:47.838Z,999.76
2019-01-18T00:29:47.825Z,999.75
2019-01-18T00:30:47.819Z,999.74
2019-01-18T00:31:47.854Z,999.82
2019-01-18T00:32:47.929Z,999.77
2019-01-18T00:33:48.204Z,999.80
2019-01-18T00:34:47.983Z,999.76
2019-01-18T00:35:48.082Z,999.74
2019-01-18T00:36:48.258Z,999.77
2019-01-18T00:37:48.224Z,999.76
2019-01-18T00:38:48.141Z,999.80
2019-01-18T00:39:48.026Z,999.82
2019-01-18T00:40:47.871Z,999.88
2019-01-18T00:41:47.699Z,999.85
2019-01-18T00:42:47.690Z,999.88
2019-01-18T00:43:47.683Z,999.92
2019-01-18T00:44:47.671Z,1000.01
2019-01-18T00:45:47.655Z,999.92
2019-01-18T00:46:47.642Z,999.89
2019-01-18T00:47:47.659Z,1000.04
2019-01-18T00:48:47.625Z,1000.03
2019-01-18T00:49:47.626Z,1000.05
2019-01-18T00:50:47.608Z,1000.06
2019-01-18T00:51:47.589Z,1000.12
2019-01-18T00:52:47.579Z,1000.07
2019-01-18T00:53:47.570Z,1000.04
2019-01-18T00:54:47.559Z,1000.05
2019-01-18T00:55:47.552Z,1000.06
2019-01-18T00:56:47.541Z,1000.07
2019-01-18T00:57:47.526Z,1000.16
2019-01-18T00:58:47.513Z,1000.16
2019-01-18T00:59:47.502Z,1000.20
2019-01-18T01:00:47.495Z,1000.22
2019-01-18T01:01:47.499Z,1000.24
2019-01-18T01:02:47.473Z,1000.19
2019-01-18T01:03:47.459Z,1000.23
2019-01-18T01:04:47.452Z,1000.25
2019-01-18T01:05:47.439Z,1000.25
2019-01-18T01:06:47.432Z,1000.33
2019-01-18T01:07:47.420Z,1000.17
2019-01-18T01:08:47.405Z,1000.27
2019-01-18T01:09:47.396Z,1000.31
2019-01-18T01:10:47.389Z,1000.33
2019-01-18T01:11:47.373Z,1000.34
2019-01-18T01:12:47.378Z,1000.36
2019-01-18T01:13:47.357Z,1000.43
2019-01-18T01:14:47.345Z,1000.36
2019-01-18T01:15:47.330Z,1000.39
2019-01-18T01:16:47.320Z,1000.37
2019-01-18T01:17:47.313Z,1000.40
2019-01-18T01:18:47.303Z,1000.45
2019-01-18T01:19:47.289Z,1000.43
2019-01-18T01:20:47.272Z,1000.48
2019-01-18T01:21:47.262Z,1000.51
2019-01-18T01:22:47.252Z,1000.53
2019-01-18T01:23:47.239Z,1000.47
2019-01-18T01:24:47.233Z,1000.51
2019-01-18T01:25:47.221Z,1000.50
2019-01-18T01:26:47.206Z,1000.52
2019-01-18T01:27:47.196Z,1000.55
2019-01-18T01:28:47.185Z,1000.57
2019-01-18T01:29:47.178Z,1000.67
2019-01-18T01:30:47.170Z,1000.70
2019-01-18T01:31:47.153Z,1000.65
2019-01-18T01:32:47.145Z,1000.69
2019-01-18T01:33:47.132Z,1000.68
2019-01-18T01:34:47.121Z,1000.70
2019-01-18T01:35:47.110Z,1000.74
2019-01-18T01:36:47.107Z,1000.72
2019-01-18T01:37:47.092Z,1000.77
2019-01-18T01:38:47.126Z,1000.78
2019-01-18T01:39:47.067Z,1000.88
2019-01-18T01:40:47.061Z,1000.87
2019-01-18T01:41:47.046Z,1000.85
2019-01-18T01:42:47.038Z,1000.90
2019-01-18T01:43:47.025Z,1000.99
2019-01-18T01:44:47.014Z,1001.02
2019-01-18T01:45:47.003Z,1001.15
2019-01-18T01:46:46.994Z,1001.15
2019-01-18T01:47:46.983Z,1001.16
2019-01-18T01:48:46.977Z,1001.25
2019-01-18T01:49:46.963Z,1001.35
2019-01-18T01:50:46.952Z,1001.33
2019-01-18T01:51:46.938Z,1001.39
2019-01-18T01:52:46.936Z,1001.42
2019-01-18T01:53:46.920Z,1001.45
2019-01-18T01:54:46.906Z,1001.43
2019-01-18T01:55:46.896Z,1001.52
2019-01-18T01:56:46.889Z,1001.52
2019-01-18T01:57:46.886Z,1001.58
2019-01-18T01:58:46.865Z,1001.63
2019-01-18T01:59:49.975Z,1001.65
2019-01-18T02:00:46.843Z,1001.74
2019-01-18T02:01:46.833Z,1001.76
2019-01-18T02:02:46.822Z,1001.72
2019-01-18T02:03:46.811Z,1001.77
2019-01-18T02:04:46.799Z,1001.85
2019-01-18T02:05:46.797Z,1001.89
2019-01-18T02:06:46.778Z,1001.88
2019-01-18T02:07:46.769Z,1001.90
2019-01-18T02:08:46.756Z,1001.88
2019-01-18T02:09:46.746Z,1001.97
2019-01-18T02:10:46.736Z,1001.95
2019-01-18T02:11:46.737Z,1002.00
2019-01-18T02:12:46.714Z,1002.09
2019-01-18T02:13:46.702Z,1002.24
2019-01-18T02:14:46.692Z,1002.10
2019-01-18T02:15:46.684Z,1002.12
2019-01-18T02:16:46.670Z,1002.12
2019-01-18T02:17:46.669Z,1002.17
2019-01-18T02:18:46.651Z,1002.17
2019-01-18T02:19:46.641Z,1002.32
2019-01-18T02:20:46.628Z,1002.32
2019-01-18T02:21:46.616Z,1002.40
2019-01-18T02:22:46.609Z,1002.40
2019-01-18T02:23:46.604Z,1002.46
2019-01-18T02:24:46.588Z,1002.43
2019-01-18T02:25:46.574Z,1002.41
2019-01-18T02:26:46.563Z,1002.48
2019-01-18T02:27:46.558Z,1002.49
2019-01-18T02:28:46.544Z,1002.53
2019-01-18T02:29:46.546Z,1002.60
2019-01-18T02:30:46.520Z,1002.67
2019-01-18T02:31:46.510Z,1002.66
2019-01-18T02:32:46.499Z,1002.71
2019-01-18T02:33:46.501Z,1002.71
2019-01-18T02:34:46.482Z,1002.74
2019-01-18T02:35:46.488Z,1002.76
2019-01-18T02:36:46.455Z,1002.87
2019-01-18T02:37:46.446Z,1002.83
2019-01-18T02:38:46.438Z,1002.90
2019-01-18T02:39:46.423Z,1002.96
2019-01-18T02:40:46.424Z,1002.91
2019-01-18T02:41:46.402Z,1002.97
2019-01-18T02:42:46.396Z,1003.03
2019-01-18T02:43:46.381Z,1003.02
2019-01-18T02:44:46.372Z,1003.03
2019-01-18T02:45:46.360Z,1003.01
2019-01-18T02:46:46.351Z,1003.06
2019-01-18T02:47:46.339Z,1003.05
2019-01-18T02:48:46.333Z,1003.04
2019-01-18T02:49:46.316Z,1003.13
2019-01-18T02:50:46.315Z,1003.15
2019-01-18T02:51:46.296Z,1003.14
2019-01-18T02:52:46.285Z,1003.22
2019-01-18T02:53:46.275Z,1003.24
2019-01-18T02:54:46.262Z,1003.26
2019-01-18T02:55:46.252Z,1003.26
2019-01-18T02:56:46.240Z,1003.30
2019-01-18T02:57:46.235Z,1003.38
2019-01-18T02:58:46.222Z,1003.33
2019-01-18T02:59:46.216Z,1003.40
2019-01-18T03:00:46.197Z,1003.45
2019-01-18T03:01:46.188Z,1003.49
2019-01-18T03:02:46.179Z,1003.48
2019-01-18T03:03:46.171Z,1003.54
2019-01-18T03:04:46.162Z,1003.53
2019-01-18T03:05:46.146Z,1003.58
2019-01-18T03:06:46.135Z,1003.65
2019-01-18T03:07:46.124Z,1003.57
2019-01-18T03:08:46.116Z,1003.66
2019-01-18T03:09:46.104Z,1003.68
2019-01-18T03:10:46.093Z,1003.76
2019-01-18T03:11:46.080Z,1003.78
2019-01-18T03:12:46.072Z,1003.82
2019-01-18T03:13:46.058Z,1003.82
2019-01-18T03:14:46.051Z,1003.83
2019-01-18T03:15:46.038Z,1003.86
2019-01-18T03:16:46.034Z,1003.86
2019-01-18T03:17:46.018Z,1003.93
2019-01-18T03:18:46.009Z,1003.90
2019-01-18T03:19:45.998Z,1004.00
2019-01-18T03:20:45.984Z,1003.94
2019-01-18T03:21:45.977Z,1004.03
2019-01-18T03:22:45.984Z,1004.08
2019-01-18T03:23:45.955Z,1004.13
2019-01-18T03:24:45.987Z,1004.08
2019-01-18T03:25:45.931Z,1004.12
2019-01-18T03:26:45.921Z,1004.06
2019-01-18T03:27:45.913Z,1004.13
2019-01-18T03:28:45.910Z,1004.21
2019-01-18T03:29:45.888Z,1004.14
2019-01-18T03:30:45.879Z,1004.17
2019-01-18T03:31:45.868Z,1004.16
2019-01-18T03:32:45.856Z,1004.21
2019-01-18T03:33:45.844Z,1004.24
2019-01-18T03:34:45.836Z,1004.24
2019-01-18T03:35:45.825Z,1004.23
2019-01-18T03:36:45.813Z,1004.32
2019-01-18T03:37:45.802Z,1004.28
2019-01-18T03:38:45.791Z,1004.32
2019-01-18T03:39:45.786Z,1004.39
2019-01-18T03:40:45.771Z,1004.44
2019-01-18T03:41:45.763Z,1004.39
2019-01-18T03:42:45.752Z,1004.41
2019-01-18T03:43:45.737Z,1004.45
2019-01-18T03:44:45.736Z,1004.47
2019-01-18T03:45:45.720Z,1004.50
2019-01-18T03:46:45.709Z,1004.54
2019-01-18T03:47:45.696Z,1004.60
2019-01-18T03:48:45.683Z,1004.61
2019-01-18T03:49:45.678Z,1004.70
2019-01-18T03:50:45.664Z,1004.71
2019-01-18T03:51:45.659Z,1004.68
2019-01-18T03:52:45.643Z,1004.77
2019-01-18T03:53:45.631Z,1004.76
2019-01-18T03:54:45.842Z,1004.85
2019-01-18T03:55:45.613Z,1004.82
2019-01-18T03:56:45.600Z,1004.83
2019-01-18T03:57:45.592Z,1004.77
2019-01-18T03:58:45.577Z,1004.85
2019-01-18T03:59:45.566Z,1004.86
2019-01-18T04:00:45.555Z,1004.90
2019-01-18T04:01:45.548Z,1004.92
2019-01-18T04:02:45.535Z,1004.91
2019-01-18T04:03:45.527Z,1004.92
2019-01-18T04:04:45.512Z,1004.93
2019-01-18T04:05:45.501Z,1004.97
2019-01-18T04:06:45.491Z,1004.97
2019-01-18T04:07:45.486Z,1005.01
2019-01-18T04:08:45.476Z,1005.04
2019-01-18T04:09:45.459Z,1005.07
2019-01-18T04:10:45.449Z,1005.11
2019-01-18T04:11:45.440Z,1005.07
2019-01-18T04:12:45.432Z,1005.12
2019-01-18T04:13:45.417Z,1005.22
2019-01-18T04:14:45.404Z,1005.24
2019-01-18T04:15:45.396Z,1005.17
2019-01-18T04:16:45.386Z,1005.25
2019-01-18T04:17:45.384Z,1005.31
2019-01-18T04:18:45.370Z,1005.27
2019-01-18T04:19:45.358Z,1005.37
2019-01-18T04:20:45.344Z,1005.43
2019-01-18T04:21:45.354Z,1005.46
2019-01-18T04:22:45.320Z,1005.43
2019-01-18T04:23:45.310Z,1005.52
2019-01-18T04:24:45.300Z,1005.45
2019-01-18T04:25:45.288Z,1005.46
2019-01-18T04:26:45.280Z,1005.49
2019-01-18T04:27:45.266Z,1005.52
2019-01-18T04:28:45.257Z,1005.53
2019-01-18T04:29:45.245Z,1005.53
2019-01-18T04:30:45.241Z,1005.51
2019-01-18T04:31:45.224Z,1005.58
2019-01-18T04:32:45.217Z,1005.60
2019-01-18T04:33:45.205Z,1005.63
2019-01-18T04:34:45.194Z,1005.61
2019-01-18T04:35:45.188Z,1005.63
2019-01-18T04:36:45.180Z,1005.72
2019-01-18T04:37:45.162Z,1005.64
2019-01-18T04:38:45.155Z,1005.73
2019-01-18T04:39:45.140Z,1005.77
2019-01-18T04:40:45.129Z,1005.76
2019-01-18T04:41:45.119Z,1005.75
2019-01-18T04:42:45.106Z,1005.79
2019-01-18T04:43:45.096Z,1005.85
2019-01-18T04:44:45.087Z,1005.88
2019-01-18T04:45:45.075Z,1005.89
2019-01-18T04:46:45.065Z,1005.95
2019-01-18T04:47:45.055Z,1005.92
2019-01-18T04:48:45.051Z,1006.00
2019-01-18T04:49:45.033Z,1005.92
2019-01-18T04:50:45.028Z,1005.93
2019-01-18T04:51:45.011Z,1006.02
2019-01-18T04:52:45.000Z,1006.03
2019-01-18T04:53:44.991Z,1006.04
2019-01-18T04:54:44.990Z,1006.10
2019-01-18T04:55:44.973Z,1006.04
2019-01-18T04:56:44.960Z,1006.08
2019-01-18T04:57:44.947Z,1006.03
2019-01-18T04:58:44.939Z,1006.09
2019-01-18T04:59:45.111Z,1006.10
2019-01-18T05:00:44.938Z,1006.16
2019-01-18T05:01:44.981Z,1006.18
2019-01-18T05:02:44.911Z,1006.16
2019-01-18T05:03:44.919Z,1006.21
2019-01-18T05:04:44.883Z,1006.21
2019-01-18T05:05:44.890Z,1006.21
2019-01-18T05:06:44.865Z,1006.26
2019-01-18T05:07:44.898Z,1006.27
2019-01-18T05:08:44.848Z,1006.30
2019-01-18T05:09:44.824Z,1006.40
2019-01-18T05:10:44.813Z,1006.38
2019-01-18T05:11:44.808Z,1006.40
2019-01-18T05:12:44.788Z,1006.36
2019-01-18T05:13:44.775Z,1006.42
2019-01-18T05:14:44.767Z,1006.46
2019-01-18T05:15:44.808Z,1006.51
2019-01-18T05:16:44.748Z,1006.48
2019-01-18T05:17:44.741Z,1006.61
2019-01-18T05:18:44.723Z,1006.55
2019-01-18T05:19:44.713Z,1006.66
2019-01-18T05:20:44.702Z,1006.57
2019-01-18T05:21:44.690Z,1006.63
2019-01-18T05:22:44.679Z,1006.66
2019-01-18T05:23:44.672Z,1006.68
2019-01-18T05:24:49.419Z,1006.70
2019-01-18T05:25:45.655Z,1006.75
2019-01-18T05:26:44.637Z,1006.73
2019-01-18T05:27:44.625Z,1006.75
2019-01-18T05:28:44.615Z,1006.78
2019-01-18T05:29:44.605Z,1006.77
2019-01-18T05:30:47.600Z,1006.84
2019-01-18T05:31:44.584Z,1006.83
2019-01-18T05:32:44.573Z,1006.92
2019-01-18T05:33:44.562Z,1006.84
2019-01-18T05:34:44.554Z,1006.87
2019-01-18T05:35:44.540Z,1006.89
2019-01-18T05:36:44.529Z,1006.91
2019-01-18T05:37:44.530Z,1006.93
2019-01-18T05:38:44.512Z,1007.00
2019-01-18T05:39:44.498Z,1007.02
2019-01-18T05:40:44.493Z,1007.01
2019-01-18T05:41:44.478Z,1007.03
2019-01-18T05:42:44.469Z,1007.09
2019-01-18T05:43:44.470Z,1007.13
2019-01-18T05:44:44.455Z,1007.14
2019-01-18T05:45:44.433Z,1007.17
2019-01-18T05:46:44.422Z,1007.14
2019-01-18T05:47:44.417Z,1007.19
2019-01-18T05:48:44.404Z,1007.26
2019-01-18T05:49:44.395Z,1007.25
2019-01-18T05:50:44.380Z,1007.28
2019-01-18T05:51:44.369Z,1007.29
2019-01-18T05:52:44.361Z,1007.36
2019-01-18T05:53:44.349Z,1007.42
2019-01-18T05:54:44.340Z,1007.36
2019-01-18T05:55:44.327Z,1007.38
2019-01-18T05:56:44.319Z,1007.41
2019-01-18T05:57:44.306Z,1007.51
2019-01-18T05:58:44.297Z,1007.46
2019-01-18T05:59:44.285Z,1007.48
2019-01-18T06:00:44.279Z,1007.48
2019-01-18T06:01:44.263Z,1007.56
2019-01-18T06:02:44.263Z,1007.55
2019-01-18T06:03:44.253Z,1007.59
2019-01-18T06:04:44.231Z,1007.54
2019-01-18T06:05:44.220Z,1007.63
2019-01-18T06:06:44.211Z,1007.64
2019-01-18T06:07:44.200Z,1007.71
2019-01-18T06:08:44.189Z,1007.65
2019-01-18T06:09:44.189Z,1007.71
2019-01-18T06:10:44.171Z,1007.75
2019-01-18T06:11:44.157Z,1007.77
2019-01-18T06:12:44.153Z,1007.82
2019-01-18T06:13:44.154Z,1007.84
2019-01-18T06:14:44.133Z,1007.85
2019-01-18T06:15:44.114Z,1007.84
2019-01-18T06:16:44.111Z,1007.91
2019-01-18T06:17:44.097Z,1007.93
2019-01-18T06:18:44.088Z,1007.91
2019-01-18T06:19:44.072Z,1007.97
2019-01-18T06:20:44.066Z,1008.09
2019-01-18T06:21:44.049Z,1008.00
2019-01-18T06:22:44.039Z,1008.09
2019-01-18T06:23:44.031Z,1008.07
2019-01-18T06:24:44.020Z,1008.11
2019-01-18T06:25:44.006Z,1008.16
2019-01-18T06:26:43.997Z,1008.14
2019-01-18T06:27:43.986Z,1008.15
2019-01-18T06:28:43.976Z,1008.19
2019-01-18T06:29:43.964Z,1008.19
2019-01-18T06:30:43.958Z,1008.21
2019-01-18T06:31:43.950Z,1008.26
2019-01-18T06:32:43.936Z,1008.33
2019-01-18T06:33:43.938Z,1008.36
2019-01-18T06:34:43.912Z,1008.26
2019-01-18T06:35:43.906Z,1008.39
2019-01-18T06:36:43.889Z,1008.36
2019-01-18T06:37:43.878Z,1008.42
2019-01-18T06:38:43.871Z,1008.47
2019-01-18T06:39:43.859Z,1008.39
2019-01-18T06:40:43.848Z,1008.46
2019-01-18T06:41:43.837Z,1008.52
2019-01-18T06:42:43.830Z,1008.52
2019-01-18T06:43:43.814Z,1008.50
2019-01-18T06:44:43.803Z,1008.47
2019-01-18T06:45:43.794Z,1008.57
2019-01-18T06:46:43.781Z,1008.52
2019-01-18T06:47:43.777Z,1008.56
2019-01-18T06:48:43.761Z,1008.52
2019-01-18T06:49:43.756Z,1008.55
2019-01-18T06:50:43.741Z,1008.63
2019-01-18T06:51:43.732Z,1008.61
2019-01-18T06:52:43.719Z,1008.66
2019-01-18T06:53:43.722Z,1008.69
2019-01-18T06:54:43.724Z,1008.78
2019-01-18T06:55:43.690Z,1008.77
2019-01-18T06:56:43.681Z,1008.82
2019-01-18T06:57:43.678Z,1008.86
2019-01-18T06:58:43.660Z,1008.88
2019-01-18T06:59:43.662Z,1008.91
2019-01-18T07:00:43.658Z,1008.94
2019-01-18T07:01:43.636Z,1008.98
2019-01-18T07:02:43.619Z,1008.98
2019-01-18T07:03:43.610Z,1009.03
2019-01-18T07:04:43.624Z,1009.04
2019-01-18T07:05:43.597Z,1009.04
2019-01-18T07:06:43.580Z,1009.09
2019-01-18T07:07:43.568Z,1009.12
2019-01-18T07:08:43.552Z,1009.22
2019-01-18T07:09:43.542Z,1009.33
2019-01-18T07:10:43.539Z,1009.31
2019-01-18T07:11:43.530Z,1009.32
2019-01-18T07:12:43.513Z,1009.29
2019-01-18T07:13:43.503Z,1009.32
2019-01-18T07:14:43.491Z,1009.37
2019-01-18T07:15:43.478Z,1009.35
2019-01-18T07:16:43.475Z,1009.37
2019-01-18T07:17:43.467Z,1009.42
2019-01-18T07:18:43.470Z,1009.48
2019-01-18T07:19:43.450Z,1009.45
2019-01-18T07:20:43.426Z,1009.53
2019-01-18T07:21:43.421Z,1009.55
2019-01-18T07:22:43.404Z,1009.56
2019-01-18T07:23:43.399Z,1009.61
2019-01-18T07:24:43.401Z,1009.61
2019-01-18T07:25:43.378Z,1009.62
2019-01-18T07:26:43.361Z,1009.72
2019-01-18T07:27:43.355Z,1009.78
2019-01-18T07:28:43.339Z,1009.83
2019-01-18T07:29:43.338Z,1009.80
2019-01-18T07:30:43.323Z,1009.83
2019-01-18T07:31:43.306Z,1009.88
2019-01-18T07:32:43.300Z,1009.93
2019-01-18T07:33:43.289Z,1009.97
2019-01-18T07:34:43.278Z,1009.96
2019-01-18T07:35:43.274Z,1010.02
2019-01-18T07:36:43.258Z,1010.02
2019-01-18T07:37:43.242Z,1010.01
2019-01-18T07:38:43.231Z,1010.05
2019-01-18T07:39:43.223Z,1010.06
2019-01-18T07:40:43.213Z,1010.09
2019-01-18T07:41:43.220Z,1010.11
2019-01-18T07:42:43.196Z,1010.15
2019-01-18T07:43:43.185Z,1010.22
2019-01-18T07:44:43.167Z,1010.25
2019-01-18T07:45:43.159Z,1010.26
2019-01-18T07:46:43.155Z,1010.28
2019-01-18T07:47:43.167Z,1010.33
2019-01-18T07:48:43.124Z,1010.38
2019-01-18T07:49:43.115Z,1010.34
2019-01-18T07:50:43.107Z,1010.34
2019-01-18T07:51:43.100Z,1010.42
2019-01-18T07:52:43.082Z,1010.46
2019-01-18T07:53:43.087Z,1010.47
2019-01-18T07:54:43.059Z,1010.44
2019-01-18T07:55:43.049Z,1010.46
2019-01-18T07:56:43.038Z,1010.47
2019-01-18T07:57:43.036Z,1010.53
2019-01-18T07:58:43.025Z,1010.58
2019-01-18T07:59:43.020Z,1010.55
2019-01-18T08:00:42.997Z,1010.57
2019-01-18T08:01:42.989Z,1010.63
2019-01-18T08:02:42.977Z,1010.61
2019-01-18T08:03:42.973Z,1010.67
2019-01-18T08:04:42.959Z,1010.71
2019-01-18T08:05:42.958Z,1010.76
2019-01-18T08:06:42.932Z,1010.76
2019-01-18T08:07:42.925Z,1010.77
2019-01-18T08:08:42.914Z,1010.81
2019-01-18T08:09:42.906Z,1010.82
2019-01-18T08:10:42.905Z,1010.84
2019-01-18T08:11:42.908Z,1010.89
2019-01-18T08:12:42.871Z,1010.91
2019-01-18T08:13:42.858Z,1010.93
2019-01-18T08:14:42.852Z,1010.94
2019-01-18T08:15:42.840Z,1010.95
2019-01-18T08:16:43.621Z,1011.08
2019-01-18T08:17:42.830Z,1011.06
2019-01-18T08:18:42.805Z,1011.04
2019-01-18T08:19:42.793Z,1011.11
2019-01-18T08:20:42.788Z,1011.15
2019-01-18T08:21:42.786Z,1011.18
2019-01-18T08:22:42.771Z,1011.23
2019-01-18T08:23:42.770Z,1011.20
2019-01-18T08:24:42.740Z,1011.19
2019-01-18T08:25:42.729Z,1011.21
2019-01-18T08:26:42.719Z,1011.26
2019-01-18T08:27:42.717Z,1011.26
2019-01-18T08:28:42.714Z,1011.33
2019-01-18T08:29:42.709Z,1011.31
2019-01-18T08:30:42.673Z,1011.36
2019-01-18T08:31:42.665Z,1011.35
2019-01-18T08:32:42.666Z,1011.34
2019-01-18T08:33:42.648Z,1011.39
2019-01-18T08:34:42.645Z,1011.41
2019-01-18T08:35:42.627Z,1011.42
2019-01-18T08:36:42.613Z,1011.45
2019-01-18T08:37:42.607Z,1011.45
2019-01-18T08:38:42.640Z,1011.49
2019-01-18T08:39:42.581Z,1011.49
2019-01-18T08:40:42.573Z,1011.55
2019-01-18T08:41:42.567Z,1011.56
2019-01-18T08:42:42.549Z,1011.54
2019-01-18T08:43:42.535Z,1011.63
2019-01-18T08:44:42.528Z,1011.59
2019-01-18T08:45:42.519Z,1011.62
2019-01-18T08:46:42.532Z,1011.67
2019-01-18T08:47:42.511Z,1011.67
2019-01-18T08:48:42.482Z,1011.70
2019-01-18T08:49:42.473Z,1011.69
2019-01-18T08:50:42.467Z,1011.71
2019-01-18T08:51:42.456Z,1011.75
2019-01-18T08:52:42.468Z,1011.76
2019-01-18T08:53:42.436Z,1011.78
2019-01-18T08:54:42.418Z,1011.81
2019-01-18T08:55:42.410Z,1011.81
2019-01-18T08:56:42.401Z,1011.84
2019-01-18T08:57:42.396Z,1011.79
2019-01-18T08:58:42.395Z,1011.84
2019-01-18T08:59:42.370Z,1011.79
2019-01-18T09:00:42.356Z,1011.87
2019-01-18T09:01:42.353Z,1011.88
2019-01-18T09:02:42.347Z,1011.95
2019-01-18T09:03:42.330Z,1011.87
2019-01-18T09:04:42.317Z,1011.94
2019-01-18T09:05:42.301Z,1012.00
2019-01-18T09:06:42.290Z,1011.93
2019-01-18T09:07:42.289Z,1011.94
2019-01-18T09:08:42.275Z,1011.97
2019-01-18T09:09:42.260Z,1012.04
2019-01-18T09:10:42.254Z,1012.00
2019-01-18T09:11:42.236Z,1011.99
2019-01-18T09:12:42.231Z,1012.03
2019-01-18T09:13:42.222Z,1012.05
2019-01-18T09:14:42.311Z,1012.05
2019-01-18T09:15:42.218Z,1012.08
2019-01-18T09:16:42.203Z,1012.09
2019-01-18T09:17:42.187Z,1012.08
2019-01-18T09:18:42.240Z,1012.10
2019-01-18T09:19:42.155Z,1012.06
2019-01-18T09:20:42.146Z,1012.14
2019-01-18T09:21:42.152Z,1012.13
2019-01-18T09:22:42.125Z,1012.15
2019-01-18T09:23:42.115Z,1012.18
2019-01-18T09:24:42.115Z,1012.15
2019-01-18T09:25:42.107Z,1012.22
2019-01-18T09:26:42.100Z,1012.25
2019-01-18T09:27:42.099Z,1012.23
2019-01-18T09:28:42.060Z,1012.25
2019-01-18T09:29:42.049Z,1012.25
2019-01-18T09:30:42.040Z,1012.28
2019-01-18T09:31:42.632Z,1012.33
2019-01-18T09:32:42.023Z,1012.29
2019-01-18T09:33:42.040Z,1012.34
2019-01-18T09:34:41.997Z,1012.37
2019-01-18T09:35:41.985Z,1012.34
2019-01-18T09:36:41.976Z,1012.41
2019-01-18T09:37:41.963Z,1012.37
2019-01-18T09:38:41.963Z,1012.35
2019-01-18T09:39:41.967Z,1012.45
2019-01-18T09:40:41.957Z,1012.48
2019-01-18T09:41:41.919Z,1012.50
2019-01-18T09:42:41.908Z,1012.47
2019-01-18T09:43:41.905Z,1012.56
2019-01-18T09:44:41.899Z,1012.50
2019-01-18T09:45:41.878Z,1012.54
2019-01-18T09:46:41.874Z,1012.53
2019-01-18T09:47:41.861Z,1012.56
2019-01-18T09:48:41.842Z,1012.55
2019-01-18T09:49:42.842Z,1012.58
2019-01-18T09:50:41.843Z,1012.56
2019-01-18T09:51:41.822Z,1012.52
2019-01-18T09:52:41.803Z,1012.61
2019-01-18T09:53:41.791Z,1012.57
2019-01-18T09:54:41.778Z,1012.65
2019-01-18T09:55:41.772Z,1012.62
2019-01-18T09:56:41.775Z,1012.63
2019-01-18T09:57:41.751Z,1012.66
2019-01-18T09:58:41.741Z,1012.71
2019-01-18T09:59:41.727Z,1012.67
2019-01-18T10:00:41.720Z,1012.63
2019-01-18T10:01:41.716Z,1012.65
2019-01-18T10:02:41.726Z,1012.66
2019-01-18T10:03:41.682Z,1012.61
2019-01-18T10:04:41.678Z,1012.58
2019-01-18T10:05:41.664Z,1012.55
2019-01-18T10:06:41.657Z,1012.59
2019-01-18T10:07:41.644Z,1012.63
2019-01-18T10:08:41.648Z,1012.61
2019-01-18T10:09:41.627Z,1012.61
2019-01-18T10:10:41.611Z,1012.56
2019-01-18T10:11:41.597Z,1012.61
2019-01-18T10:12:41.588Z,1012.67
2019-01-18T10:13:41.577Z,1012.71
2019-01-18T10:14:41.575Z,1012.62
2019-01-18T10:15:41.557Z,1012.60
2019-01-18T10:16:41.548Z,1012.55
2019-01-18T10:17:41.533Z,1012.63
2019-01-18T10:18:41.529Z,1012.62
2019-01-18T10:19:41.518Z,1012.65
2019-01-18T10:20:41.515Z,1012.61
2019-01-18T10:21:41.491Z,1012.63
2019-01-18T10:22:41.489Z,1012.67
2019-01-18T10:23:41.469Z,1012.78
2019-01-18T10:24:41.479Z,1012.65
2019-01-18T10:25:41.461Z,1012.67
2019-01-18T10:26:41.461Z,1012.71
2019-01-18T10:27:41.428Z,1012.77
2019-01-18T10:28:41.421Z,1012.73
2019-01-18T10:29:41.407Z,1012.71
2019-01-18T10:30:41.411Z,1012.66
2019-01-18T10:31:41.405Z,1012.70
2019-01-18T10:32:41.398Z,1012.73
2019-01-18T10:33:41.366Z,1012.70
2019-01-18T10:34:41.360Z,1012.77
2019-01-18T10:35:41.347Z,1012.73
2019-01-18T10:36:41.341Z,1012.75
2019-01-18T10:37:41.329Z,1012.71
2019-01-18T10:38:41.334Z,1012.68
2019-01-18T10:39:41.301Z,1012.75
2019-01-18T10:40:41.293Z,1012.68
2019-01-18T10:41:41.276Z,1012.74
2019-01-18T10:42:41.279Z,1012.76
2019-01-18T10:43:41.272Z,1012.77
2019-01-18T10:44:41.252Z,1012.78
2019-01-18T10:45:41.233Z,1012.88
2019-01-18T10:46:41.232Z,1012.79
2019-01-18T10:47:41.217Z,1012.79
2019-01-18T10:48:41.210Z,1012.89
2019-01-18T10:49:41.200Z,1012.80
2019-01-18T10:50:41.192Z,1012.84
2019-01-18T10:51:41.173Z,1012.86
2019-01-18T10:52:41.163Z,1012.89
2019-01-18T10:53:41.158Z,1012.95
2019-01-18T10:54:41.142Z,1012.95
2019-01-18T10:55:41.144Z,1012.89
2019-01-18T10:56:41.124Z,1012.97
2019-01-18T10:57:41.107Z,1013.00
2019-01-18T10:58:41.100Z,1012.93
2019-01-18T10:59:41.093Z,1012.99
2019-01-18T11:00:41.081Z,1013.06
2019-01-18T11:01:41.071Z,1013.06
2019-01-18T11:02:41.056Z,1013.10
2019-01-18T11:03:41.044Z,1013.10
2019-01-18T11:04:41.035Z,1013.14
2019-01-18T11:05:41.044Z,1013.03
2019-01-18T11:06:41.035Z,1013.10
2019-01-18T11:07:41.007Z,1013.07
2019-01-18T11:08:40.992Z,1013.13
2019-01-18T11:09:40.983Z,1013.13
2019-01-18T11:10:40.973Z,1013.05
2019-01-18T11:11:40.961Z,1013.06
2019-01-18T11:12:40.955Z,1013.17
2019-01-18T11:13:40.943Z,1013.15
2019-01-18T11:14:40.939Z,1013.09
2019-01-18T11:15:40.931Z,1013.14
2019-01-18T11:16:40.912Z,1013.13
2019-01-18T11:17:40.909Z,1013.15
2019-01-18T11:18:40.936Z,1013.11
2019-01-18T11:19:40.886Z,1013.16
2019-01-18T11:20:40.868Z,1013.23
2019-01-18T11:21:40.849Z,1013.28
2019-01-18T11:22:40.842Z,1013.21
2019-01-18T11:23:40.841Z,1013.21
2019-01-18T11:24:40.832Z,1013.22
2019-01-18T11:25:40.819Z,1013.26
2019-01-18T11:26:40.804Z,1013.28
2019-01-18T11:27:40.785Z,1013.23
2019-01-18T11:28:40.787Z,1013.21
2019-01-18T11:29:40.774Z,1013.25
2019-01-18T11:30:40.760Z,1013.26
2019-01-18T11:31:40.754Z,1013.23
2019-01-18T11:32:40.749Z,1013.28
2019-01-18T11:33:40.721Z,1013.23
2019-01-18T11:34:40.735Z,1013.26
2019-01-18T11:35:40.712Z,1013.25
2019-01-18T11:36:40.695Z,1013.19
2019-01-18T11:37:40.704Z,1013.21
2019-01-18T11:38:40.670Z,1013.26
2019-01-18T11:39:40.662Z,1013.25
2019-01-18T11:40:40.650Z,1013.22
2019-01-18T11:41:40.641Z,1013.22
2019-01-18T11:42:40.636Z,1013.20
2019-01-18T11:43:40.637Z,1013.19
2019-01-18T11:44:40.609Z,1013.22
2019-01-18T11:45:40.594Z,1013.21
2019-01-18T11:46:40.595Z,1013.24
2019-01-18T11:47:40.578Z,1013.29
2019-01-18T11:48:40.566Z,1013.26
2019-01-18T11:49:40.672Z,1013.25
2019-01-18T11:50:40.723Z,1013.31
2019-01-18T11:51:40.546Z,1013.30
2019-01-18T11:52:40.529Z,1013.27
2019-01-18T11:53:40.923Z,1013.28
2019-01-18T11:54:43.967Z,1013.28
2019-01-18T11:55:40.487Z,1013.21
2019-01-18T11:56:40.475Z,1013.23
2019-01-18T11:57:40.467Z,1013.26
2019-01-18T11:58:40.471Z,1013.25
2019-01-18T11:59:40.448Z,1013.32
2019-01-18T12:00:40.445Z,1013.34
2019-01-18T12:01:40.421Z,1013.27
2019-01-18T12:02:40.415Z,1013.26
2019-01-18T12:03:40.408Z,1013.25
2019-01-18T12:04:40.414Z,1013.26
2019-01-18T12:05:40.387Z,1013.28
2019-01-18T12:06:40.383Z,1013.29
2019-01-18T12:07:40.358Z,1013.35